Time;durP1;ratioP1;P1;durP2;ratioP2;P2;SDS_P1;SDS_P2;PMS_P1;PMS_P2;Temp;Humidity;BMP_temperature;BMP_pressure;BME280_temperature;BME280_humidity;BME280_pressure;Samples;Min_cycle;Max_cycle;Signal;HPM_P1;HPM_P2
2021/09/10 00:03:04;;;;;;;12.40;9.25;;;18.60;99.90;;;;;;12509057;28;20140;-38
2021/09/10 00:09:06;;;;;;;14.35;9.73;;;18.70;99.90;;;;;;12508813;28;20613;-37
2021/09/10 00:15:10;;;;;;;16.88;10.27;;;18.70;99.90;;;;;;12510323;28;20045;-37
2021/09/10 00:21:12;;;;;;;10.68;8.70;;;18.70;99.90;;;;;;12506274;28;20053;-37
2021/09/10 00:27:14;;;;;;;14.88;9.40;;;18.80;99.90;;;;;;12508340;28;20121;-38
2021/09/10 00:33:16;;;;;;;12.90;9.07;;;18.80;99.90;;;;;;12509186;28;20136;-37
2021/09/10 00:39:18;;;;;;;11.38;8.48;;;18.80;99.90;;;;;;12507741;28;20085;-37
2021/09/10 00:45:19;;;;;;;12.77;10.02;;;18.80;99.90;;;;;;12505596;28;20074;-38
2021/09/10 00:51:22;;;;;;;9.13;7.68;;;18.80;99.90;;;;;;12505856;28;20049;-37
2021/09/10 00:57:24;;;;;;;11.30;7.72;;;18.90;99.90;;;;;;12504624;28;20045;-37
2021/09/10 01:03:26;;;;;;;11.35;7.43;;;19.00;99.90;;;;;;12508889;28;20077;-38
2021/09/10 01:09:30;;;;;;;;;;;19.00;99.90;;;;;;12506773;28;20045;-37
2021/09/10 01:15:49;;;;;;;10.25;7.10;;;19.00;99.90;;;;;;12503737;28;20612;-37
2021/09/10 01:21:57;;;;;;;10.80;7.68;;;18.90;99.90;;;;;;12506118;28;20501;-37
2021/09/10 01:28:00;;;;;;;10.30;7.72;;;18.90;99.90;;;;;;12506156;28;20088;-37
2021/09/10 01:34:02;;;;;;;10.88;7.40;;;18.90;99.90;;;;;;12485472;28;20057;-39
2021/09/10 01:40:06;;;;;;;11.60;7.80;;;18.90;99.90;;;;;;12504459;28;20136;-37
2021/09/10 01:46:08;;;;;;;8.25;6.93;;;18.90;99.90;;;;;;12508712;28;20116;-37
2021/09/10 01:52:10;;;;;;;8.55;6.35;;;18.90;99.90;;;;;;12505400;28;20135;-37
2021/09/10 01:58:12;;;;;;;10.32;6.47;;;19.00;99.90;;;;;;12491387;28;20045;-37
2021/09/10 02:04:14;;;;;;;12.10;7.03;;;19.10;99.90;;;;;;12503104;28;20041;-38
2021/09/10 02:10:17;;;;;;;12.55;7.65;;;19.00;99.90;;;;;;12504523;28;20046;-37
2021/09/10 02:16:19;;;;;;;12.68;7.80;;;18.90;99.90;;;;;;12505861;28;20069;-37
2021/09/10 02:22:21;;;;;;;11.07;7.72;;;18.90;99.90;;;;;;12498969;28;20099;-37
2021/09/10 02:28:24;;;;;;;13.15;8.68;;;18.80;99.90;;;;;;12505273;28;20136;-37
2021/09/10 02:34:26;;;;;;;10.80;8.68;;;18.80;99.90;;;;;;12503288;28;20083;-37
2021/09/10 02:40:28;;;;;;;12.35;9.57;;;18.80;99.90;;;;;;12518216;28;20186;-37
2021/09/10 02:46:30;;;;;;;11.73;8.73;;;18.70;99.90;;;;;;12521073;28;20053;-37
2021/09/10 02:52:36;;;;;;;11.48;9.38;;;18.70;99.90;;;;;;12517219;28;20056;-37
2021/09/10 02:58:38;;;;;;;12.98;10.02;;;18.80;99.90;;;;;;12520762;28;20159;-37
2021/09/10 03:04:44;;;;;;;10.63;9.23;;;18.80;99.90;;;;;;12524031;28;20079;-37
2021/09/10 03:10:46;;;;;;;15.73;10.00;;;18.70;99.90;;;;;;12515020;28;20140;-37
2021/09/10 03:16:48;;;;;;;14.77;10.45;;;18.70;99.90;;;;;;12519327;28;20059;-37
2021/09/10 03:22:50;;;;;;;17.55;10.27;;;18.70;99.90;;;;;;12519782;28;20069;-37
2021/09/10 03:28:52;;;;;;;12.55;9.48;;;18.80;99.90;;;;;;12522097;28;20477;-39
2021/09/10 03:34:54;;;;;;;15.13;10.05;;;18.80;99.90;;;;;;12518982;28;20143;-37
2021/09/10 03:40:57;;;;;;;15.93;10.50;;;18.70;99.90;;;;;;12520401;28;20536;-37
2021/09/10 03:46:59;;;;;;;17.58;11.18;;;18.70;99.90;;;;;;12516738;28;20054;-37
2021/09/10 03:53:01;;;;;;;18.38;11.40;;;18.70;99.90;;;;;;12510118;28;20056;-37
2021/09/10 03:59:03;;;;;;;14.60;10.50;;;18.70;99.90;;;;;;12515876;28;20102;-37
2021/09/10 04:05:05;;;;;;;18.08;10.95;;;18.70;99.90;;;;;;12515253;28;20143;-37
2021/09/10 04:11:07;;;;;;;15.43;10.43;;;18.70;99.90;;;;;;12510504;28;20088;-37
2021/09/10 04:17:09;;;;;;;12.07;10.05;;;18.70;99.90;;;;;;12505239;28;20049;-38
2021/09/10 04:23:12;;;;;;;16.40;10.80;;;18.70;99.90;;;;;;12505668;28;20394;-37
2021/09/10 04:29:13;;;;;;;16.50;11.52;;;18.70;99.90;;;;;;12510013;28;20077;-37
2021/09/10 04:35:15;;;;;;;16.65;11.50;;;18.60;99.90;;;;;;12506880;28;20048;-39
2021/09/10 04:41:17;;;;;;;17.98;11.55;;;18.60;99.90;;;;;;12507694;28;20052;-37
2021/09/10 04:47:20;;;;;;;16.35;12.73;;;18.60;99.90;;;;;;12512711;28;20080;-37
2021/09/10 04:53:22;;;;;;;16.98;12.38;;;18.60;99.90;;;;;;12510325;28;20049;-39
2021/09/10 04:59:24;;;;;;;18.08;13.98;;;18.50;99.90;;;;;;12508098;28;20570;-38
2021/09/10 05:05:29;;;;;;;22.20;14.20;;;18.50;99.90;;;;;;12509141;28;20048;-37
2021/09/10 05:11:31;;;;;;;19.90;14.68;;;18.50;99.90;;;;;;12506976;28;20097;-37
2021/09/10 05:17:33;;;;;;;16.17;14.00;;;18.60;99.90;;;;;;12510814;28;20053;-37
2021/09/10 05:23:35;;;;;;;17.90;14.20;;;18.60;99.90;;;;;;12512019;28;20086;-37
2021/09/10 05:29:37;;;;;;;19.13;13.45;;;18.70;99.90;;;;;;12506548;28;20049;-37
2021/09/10 05:35:39;;;;;;;20.55;13.93;;;18.70;99.90;;;;;;12507068;28;20056;-37
2021/09/10 05:41:42;;;;;;;17.00;13.13;;;18.70;99.90;;;;;;12504480;28;20132;-37
2021/09/10 05:47:47;;;;;;;21.40;14.57;;;18.70;99.90;;;;;;12504057;28;20073;-37
2021/09/10 05:53:49;;;;;;;19.48;14.45;;;18.80;99.90;;;;;;12508165;28;20056;-37
2021/09/10 05:59:51;;;;;;;21.50;14.63;;;18.90;99.90;;;;;;12505602;28;20045;-37
2021/09/10 06:05:54;;;;;;;21.83;14.70;;;18.90;99.90;;;;;;12507584;28;20079;-38
2021/09/10 06:11:56;;;;;;;20.58;14.93;;;19.00;99.90;;;;;;12503682;28;20463;-37
2021/09/10 06:17:58;;;;;;;22.98;15.27;;;19.00;99.90;;;;;;12506658;28;20134;-38
2021/09/10 06:24:00;;;;;;;18.08;14.05;;;19.00;99.90;;;;;;12502625;28;20079;-37
2021/09/10 06:30:02;;;;;;;19.25;13.52;;;18.90;99.90;;;;;;12506129;28;20513;-37
2021/09/10 06:36:04;;;;;;;18.17;12.63;;;19.00;99.90;;;;;;12506443;28;20084;-37
2021/09/10 06:42:07;;;;;;;15.85;12.77;;;19.10;99.90;;;;;;12504430;28;20250;-37
2021/09/10 06:48:10;;;;;;;16.93;10.93;;;19.10;99.90;;;;;;12507792;28;20413;-38
2021/09/10 06:54:12;;;;;;;14.02;10.57;;;19.10;99.90;;;;;;12506654;28;20140;-37
2021/09/10 07:00:15;;;;;;;13.00;10.20;;;19.20;99.90;;;;;;12504767;28;20106;-37
2021/09/10 07:06:17;;;;;;;12.48;10.15;;;19.20;99.90;;;;;;12489326;28;20324;-37
2021/09/10 07:12:19;;;;;;;14.57;10.25;;;19.20;99.90;;;;;;12508773;28;21120;-38
2021/09/10 07:18:21;;;;;;;13.82;10.63;;;19.20;99.90;;;;;;12507313;28;20168;-37
2021/09/10 07:24:23;;;;;;;13.55;9.48;;;19.30;99.90;;;;;;12510732;28;20079;-38
2021/09/10 07:30:25;;;;;;;12.75;10.68;;;19.50;99.90;;;;;;12512985;28;20413;-37
2021/09/10 07:36:27;;;;;;;14.98;10.30;;;19.50;99.90;;;;;;12519367;28;20063;-41
2021/09/10 07:42:32;;;;;;;15.90;10.63;;;19.60;99.90;;;;;;12513008;28;20087;-37
2021/09/10 07:48:34;;;;;;;15.75;10.32;;;19.60;99.90;;;;;;12514781;28;20128;-38
2021/09/10 07:54:37;;;;;;;13.10;10.50;;;19.70;99.90;;;;;;12512101;28;20060;-38
2021/09/10 08:00:47;;;;;;;15.73;11.25;;;19.70;99.90;;;;;;12517188;28;20076;-38
2021/09/10 08:06:49;;;;;;;21.15;11.55;;;19.80;99.90;;;;;;12514304;28;20060;-38
2021/09/10 08:12:51;;;;;;;14.18;10.73;;;19.90;99.90;;;;;;12513619;28;20129;-37
2021/09/10 08:18:54;;;;;;;15.65;10.32;;;19.90;99.90;;;;;;12510216;28;20057;-37
2021/09/10 08:25:16;;;;;;;17.63;11.30;;;20.00;99.90;;;;;;12510621;28;20063;-38
2021/09/10 08:31:20;;;;;;;17.00;11.85;;;20.20;99.90;;;;;;12508782;28;20048;-37
2021/09/10 08:37:22;;;;;;;16.10;11.43;;;20.40;99.90;;;;;;12506923;28;20136;-37
2021/09/10 08:43:27;;;;;;;20.15;12.13;;;20.50;99.90;;;;;;12510440;28;20080;-37
2021/09/10 08:49:29;;;;;;;15.80;11.98;;;20.40;99.90;;;;;;12510331;28;20057;-38
2021/09/10 08:55:31;;;;;;;14.82;12.15;;;20.30;99.90;;;;;;12503442;28;20051;-38
2021/09/10 09:01:33;;;;;;;15.98;10.38;;;20.20;99.90;;;;;;12507557;28;20164;-38
2021/09/10 09:07:38;;;;;;;16.77;11.57;;;20.40;99.90;;;;;;12510381;28;20056;-37
2021/09/10 09:13:43;;;;;;;16.13;10.40;;;20.70;99.90;;;;;;12480145;28;20038;-38
2021/09/10 09:19:46;;;;;;;14.00;11.05;;;21.10;99.90;;;;;;12510437;28;20060;-39
2021/09/10 09:25:48;;;;;;;20.33;12.65;;;21.00;99.90;;;;;;12484416;28;20390;-37
2021/09/10 09:32:01;;;;;;;19.83;12.80;;;21.00;99.90;;;;;;12504254;28;20405;-37
2021/09/10 09:38:18;;;;;;;19.42;12.73;;;21.30;99.90;;;;;;12507557;28;20394;-37
2021/09/10 09:44:20;;;;;;;16.13;10.40;;;21.60;99.90;;;;;;12511231;28;20061;-39
2021/09/10 09:50:22;;;;;;;14.90;10.77;;;22.00;99.90;;;;;;12494963;28;20537;-38
2021/09/10 09:56:27;;;;;;;21.95;12.27;;;22.20;99.90;;;;;;12509509;28;20091;-38
2021/09/10 10:02:29;;;;;;;19.15;11.95;;;22.40;99.90;;;;;;12503808;28;20101;-37
2021/09/10 10:09:02;;;;;;;17.42;13.02;;;22.60;99.90;;;;;;12508230;28;20699;-38
2021/09/10 10:15:27;;;;;;;14.50;11.35;;;22.70;99.90;;;;;;12507007;28;20084;-37
2021/09/10 10:21:50;;;;;;;19.42;13.05;;;23.00;99.90;;;;;;12506508;28;20051;-37
2021/09/10 10:27:55;;;;;;;15.35;12.63;;;22.80;99.90;;;;;;12507288;28;20265;-38
2021/09/10 10:34:23;;;;;;;19.30;14.25;;;23.20;99.90;;;;;;12497998;28;20079;-38
2021/09/10 10:40:27;;;;;;;16.52;12.32;;;23.60;99.90;;;;;;12507872;28;20128;-37
2021/09/10 10:46:38;;;;;;;14.80;13.20;;;23.60;99.90;;;;;;12505894;28;20052;-38
2021/09/10 10:52:41;;;;;;;16.87;13.00;;;23.70;99.90;;;;;;12510836;28;20233;-37
2021/09/10 10:58:43;;;;;;;14.70;11.10;;;23.40;99.90;;;;;;12512895;28;20471;-38
2021/09/10 11:04:58;;;;;;;14.65;12.70;;;23.70;99.90;;;;;;12521498;28;20061;-37
2021/09/10 11:11:04;;;;;;;14.50;11.77;;;23.90;99.90;;;;;;12521515;28;20102;-37
2021/09/10 11:17:13;;;;;;;11.47;10.13;;;24.20;99.90;;;;;;12521516;28;20096;-37
2021/09/10 11:23:24;;;;;;;12.02;9.23;;;24.50;99.90;;;;;;12518539;28;20815;-37
2021/09/10 11:29:37;;;;;;;12.05;9.02;;;24.70;99.90;;;;;;12513465;28;20057;-37
2021/09/10 11:35:40;;;;;;;10.70;7.53;;;24.60;99.90;;;;;;12516455;28;20048;-37
2021/09/10 11:41:43;;;;;;;11.98;9.65;;;24.70;99.90;;;;;;12511846;28;20168;-38
2021/09/10 11:47:47;;;;;;;;;;;25.00;99.90;;;;;;12518971;28;20131;-37
2021/09/10 11:53:56;;;;;;;8.48;7.13;;;25.00;99.90;;;;;;12516783;28;20280;-37
2021/09/10 12:00:00;;;;;;;10.13;7.55;;;25.00;99.90;;;;;;12502282;28;20064;-37
2021/09/10 12:06:03;;;;;;;9.73;6.25;;;25.50;99.90;;;;;;12515902;28;20128;-37
2021/09/10 12:12:07;;;;;;;;;;;25.70;99.90;;;;;;12516270;28;20080;-37
2021/09/10 12:18:13;;;;;;;8.68;6.00;;;25.80;99.90;;;;;;12521006;28;19927;-39
2021/09/10 12:24:18;;;;;;;8.20;6.30;;;25.70;99.90;;;;;;12519502;28;20052;-37
2021/09/10 12:30:24;;;;;;;7.50;5.43;;;25.20;99.90;;;;;;12517647;28;20136;-37
2021/09/10 12:36:26;;;;;;;9.15;5.80;;;25.00;99.90;;;;;;12517363;28;20049;-38
2021/09/10 12:42:28;;;;;;;8.17;5.07;;;25.30;99.90;;;;;;12519811;28;20128;-37
2021/09/10 12:48:31;;;;;;;9.30;5.77;;;25.10;99.90;;;;;;12516990;28;20061;-37
2021/09/10 12:54:34;;;;;;;7.63;5.53;;;25.20;99.90;;;;;;12519162;28;20052;-39
2021/09/10 13:00:38;;;;;;;7.22;4.88;;;25.20;99.90;;;;;;12504207;28;20136;-37
2021/09/10 13:06:41;;;;;;;8.73;5.97;;;25.70;99.90;;;;;;12517666;28;20463;-37
2021/09/10 13:12:44;;;;;;;6.47;5.57;;;24.90;99.90;;;;;;12512203;28;20437;-37
2021/09/10 13:18:46;;;;;;;11.40;6.50;;;24.30;99.90;;;;;;12514515;28;20131;-38
2021/09/10 13:24:48;;;;;;;9.20;7.30;;;23.70;99.90;;;;;;12522579;28;20076;-37
2021/09/10 13:30:50;;;;;;;11.00;7.50;;;23.40;99.90;;;;;;12509567;28;20059;-37
2021/09/10 13:36:53;;;;;;;11.57;8.33;;;23.10;99.90;;;;;;12513696;28;20049;-38
2021/09/10 13:42:56;;;;;;;19.15;8.75;;;22.70;99.90;;;;;;12514796;28;20132;-38
2021/09/10 13:49:03;;;;;;;14.82;6.53;;;22.20;99.90;;;;;;12520357;28;20041;-38
2021/09/10 13:55:06;;;;;;;;;;;21.60;99.90;;;;;;12516991;28;20080;-37
2021/09/10 14:01:08;;;;;;;13.25;9.55;;;21.10;99.90;;;;;;12511866;28;19924;-37
2021/09/10 14:07:11;;;;;;;15.33;9.67;;;20.90;99.90;;;;;;12514565;28;20057;-37
2021/09/10 14:13:13;;;;;;;8.50;5.07;;;20.90;99.90;;;;;;12496022;28;20128;-37
2021/09/10 14:19:15;;;;;;;7.30;4.40;;;20.70;99.90;;;;;;12510021;28;20136;-37
2021/09/10 14:25:17;;;;;;;7.57;4.95;;;20.50;99.90;;;;;;12510955;28;20425;-37
2021/09/10 14:31:25;;;;;;;9.47;5.40;;;20.30;99.90;;;;;;12516327;28;20091;-37
2021/09/10 14:37:29;;;;;;;6.72;4.20;;;20.00;99.90;;;;;;12518339;28;20045;-37
2021/09/10 14:43:31;;;;;;;4.90;3.25;;;19.60;99.90;;;;;;12512879;28;20049;-37
2021/09/10 14:49:34;;;;;;;5.15;3.10;;;19.40;99.90;;;;;;12511318;28;20049;-37
2021/09/10 14:55:36;;;;;;;3.15;2.00;;;19.40;99.90;;;;;;12512905;28;20284;-37
2021/09/10 15:01:40;;;;;;;3.60;2.03;;;19.30;99.90;;;;;;12503714;28;20160;-37
2021/09/10 15:07:45;;;;;;;6.72;2.08;;;19.20;99.90;;;;;;12508709;28;20177;-37
2021/09/10 15:13:53;;;;;;;2.85;2.00;;;19.20;99.90;;;;;;12512519;28;20507;-37
2021/09/10 15:19:55;;;;;;;3.30;2.25;;;19.20;99.90;;;;;;12510884;28;20095;-37
2021/09/10 15:25:58;;;;;;;5.32;2.60;;;19.30;99.90;;;;;;12510135;28;20557;-37
2021/09/10 15:32:04;;;;;;;6.72;3.72;;;19.40;99.90;;;;;;12511281;28;20048;-38
2021/09/10 15:38:07;;;;;;;7.68;4.45;;;19.60;99.90;;;;;;12507862;28;20045;-38
2021/09/10 15:44:09;;;;;;;5.32;4.43;;;19.70;99.90;;;;;;12512297;28;20183;-37
2021/09/10 15:50:11;;;;;;;5.45;4.80;;;19.90;99.90;;;;;;12514664;28;20068;-37
2021/09/10 15:56:18;;;;;;;7.13;4.70;;;19.90;99.90;;;;;;12516723;28;20060;-38
2021/09/10 16:02:20;;;;;;;7.15;4.90;;;20.00;99.90;;;;;;12507236;28;20166;-37
2021/09/10 16:08:22;;;;;;;8.40;4.90;;;20.10;99.90;;;;;;12515158;28;20591;-37
2021/09/10 16:14:24;;;;;;;7.05;4.45;;;20.10;99.90;;;;;;12516225;28;20620;-37
2021/09/10 16:20:28;;;;;;;;;;;20.10;99.90;;;;;;12515053;28;20033;-37
2021/09/10 16:26:30;;;;;;;5.30;2.90;;;20.00;99.90;;;;;;12521058;28;19931;-37
2021/09/10 16:32:32;;;;;;;5.88;3.28;;;20.10;99.90;;;;;;12515843;28;20090;-37
2021/09/10 16:38:37;;;;;;;4.10;2.80;;;20.10;99.90;;;;;;12517375;28;20076;-37
2021/09/10 16:44:39;;;;;;;5.10;3.40;;;20.20;99.90;;;;;;12511411;28;20053;-37
2021/09/10 16:50:42;;;;;;;6.90;3.80;;;20.10;99.90;;;;;;12512691;28;20144;-37
2021/09/10 16:56:44;;;;;;;6.90;3.23;;;20.00;99.90;;;;;;12514740;28;20049;-37
2021/09/10 17:02:53;;;;;;;4.70;3.92;;;19.90;99.90;;;;;;12514129;28;20493;-37
2021/09/10 17:08:56;;;;;;;7.27;4.43;;;19.70;99.90;;;;;;12514460;28;20089;-37
2021/09/10 17:14:59;;;;;;;6.03;4.40;;;19.60;99.90;;;;;;12513020;28;20307;-37
2021/09/10 17:21:07;;;;;;;21.10;3.80;;;19.30;99.90;;;;;;12506485;28;20076;-37
2021/09/10 17:27:14;;;;;;;10.75;2.22;;;18.40;99.90;;;;;;12519427;28;20110;-37
2021/09/10 17:33:16;;;;;;;5.68;2.08;;;18.20;99.90;;;;;;12516278;28;20060;-37
2021/09/10 17:39:18;;;;;;;5.60;2.67;;;17.80;99.90;;;;;;12511192;28;20041;-37
2021/09/10 17:45:21;;;;;;;8.35;3.00;;;17.90;99.90;;;;;;12511932;28;20105;-37
2021/09/10 17:51:22;;;;;;;4.68;2.97;;;17.90;99.90;;;;;;12508907;28;20045;-38
2021/09/10 17:57:27;;;;;;;5.57;4.15;;;17.90;99.90;;;;;;12507050;28;20079;-37
2021/09/10 18:03:29;;;;;;;6.40;5.13;;;18.10;99.90;;;;;;12507869;28;20041;-38
2021/09/10 18:09:31;;;;;;;6.82;6.15;;;18.20;99.90;;;;;;12516144;28;20052;-37
2021/09/10 18:15:33;;;;;;;9.25;6.72;;;18.20;99.90;;;;;;12501265;28;20059;-37
2021/09/10 18:21:35;;;;;;;9.20;6.00;;;18.20;99.90;;;;;;12502263;28;20057;-38
2021/09/10 18:27:37;;;;;;;5.32;4.60;;;18.30;99.90;;;;;;12502459;28;20144;-38
2021/09/10 18:33:39;;;;;;;6.13;4.50;;;18.30;99.90;;;;;;12496477;28;20859;-36
2021/09/10 18:39:44;;;;;;;7.05;4.40;;;18.30;99.90;;;;;;12505687;28;20110;-37
2021/09/10 18:45:46;;;;;;;6.70;4.45;;;18.30;99.90;;;;;;12501094;28;20041;-37
2021/09/10 18:51:49;;;;;;;8.30;5.43;;;18.30;99.90;;;;;;12499238;28;20107;-37
2021/09/10 18:57:51;;;;;;;6.28;5.15;;;18.30;99.90;;;;;;12506184;28;20045;-38
2021/09/10 19:03:53;;;;;;;7.82;5.93;;;18.30;99.90;;;;;;12502102;28;20143;-37
2021/09/10 19:09:55;;;;;;;7.60;5.93;;;18.30;99.90;;;;;;12499131;28;20049;-37
2021/09/10 19:15:57;;;;;;;7.35;5.63;;;18.30;99.90;;;;;;12501920;28;20049;-38
2021/09/10 19:22:04;;;;;;;6.47;5.80;;;18.30;99.90;;;;;;12506015;28;20048;-37
2021/09/10 19:28:06;;;;;;;9.45;6.38;;;18.30;99.90;;;;;;12508741;28;20175;-37
2021/09/10 19:34:08;;;;;;;8.73;7.20;;;18.30;99.90;;;;;;12509264;28;20049;-37
2021/09/10 19:40:10;;;;;;;11.30;8.75;;;18.40;99.90;;;;;;12492884;28;20060;-37
2021/09/10 19:46:16;;;;;;;12.82;9.43;;;18.40;99.90;;;;;;12509583;28;20049;-37
2021/09/10 19:52:18;;;;;;;12.82;11.07;;;18.40;99.90;;;;;;12509353;28;20063;-37
2021/09/10 19:58:20;;;;;;;13.43;11.05;;;18.40;99.90;;;;;;12509253;28;20045;-37
2021/09/10 20:04:22;;;;;;;14.82;11.63;;;18.50;99.90;;;;;;12513545;28;20413;-37
2021/09/10 20:10:24;;;;;;;16.10;13.32;;;18.50;99.90;;;;;;12513630;28;20139;-37
2021/09/10 20:16:26;;;;;;;17.88;15.65;;;18.40;99.90;;;;;;12512714;28;20439;-38
2021/09/10 20:22:28;;;;;;;21.75;15.20;;;18.50;99.90;;;;;;12507578;28;20064;-37
2021/09/10 20:28:30;;;;;;;21.30;16.45;;;18.60;99.90;;;;;;12506575;28;20485;-37
2021/09/10 20:34:32;;;;;;;19.70;16.83;;;18.60;99.90;;;;;;12504554;28;20061;-38
2021/09/10 20:40:36;;;;;;;21.00;16.95;;;18.60;99.90;;;;;;12506684;28;20449;-37
2021/09/10 20:46:38;;;;;;;21.23;18.38;;;18.50;99.90;;;;;;12507182;28;20485;-37
2021/09/10 20:52:40;;;;;;;22.20;17.95;;;18.50;99.90;;;;;;12503435;28;20750;-38
2021/09/10 20:58:42;;;;;;;17.73;15.25;;;18.40;99.90;;;;;;12509673;28;20104;-37
2021/09/10 21:04:44;;;;;;;20.92;15.52;;;18.40;99.90;;;;;;12510998;28;20045;-37
2021/09/10 21:10:46;;;;;;;18.15;14.77;;;18.40;99.90;;;;;;12506508;28;20057;-37
2021/09/10 21:16:49;;;;;;;19.98;16.15;;;18.40;99.90;;;;;;12504891;28;20049;-37
2021/09/10 21:22:52;;;;;;;21.08;16.63;;;18.40;99.90;;;;;;12504950;28;20573;-38
2021/09/10 21:28:54;;;;;;;24.30;18.40;;;18.40;99.90;;;;;;12506225;28;20406;-38
2021/09/10 21:34:56;;;;;;;23.48;18.77;;;18.30;99.90;;;;;;12503476;28;20053;-37
2021/09/10 21:40:58;;;;;;;24.58;18.77;;;18.20;99.90;;;;;;12506056;28;20129;-37
2021/09/10 21:47:00;;;;;;;22.65;17.75;;;18.20;99.90;;;;;;12503795;28;20064;-38
2021/09/10 21:53:02;;;;;;;23.45;17.58;;;18.10;99.90;;;;;;12504861;28;20167;-37
2021/09/10 21:59:04;;;;;;;23.38;17.02;;;18.10;99.90;;;;;;12505575;28;20084;-37
2021/09/10 22:05:09;;;;;;;19.58;16.15;;;18.10;99.90;;;;;;12507794;28;20147;-37
2021/09/10 22:11:12;;;;;;;;;;;18.10;99.90;;;;;;12504121;28;20085;-37
2021/09/10 22:17:13;;;;;;;21.27;16.20;;;18.10;99.90;;;;;;12506037;28;20008;-37
2021/09/10 22:23:16;;;;;;;20.20;16.98;;;18.10;99.90;;;;;;12501177;28;20083;-37
2021/09/10 22:29:18;;;;;;;21.90;16.00;;;18.10;99.90;;;;;;12504879;28;20050;-37
2021/09/10 22:35:20;;;;;;;25.80;18.42;;;18.20;99.90;;;;;;12503283;28;20527;-37
2021/09/10 22:41:22;;;;;;;20.83;17.65;;;18.20;99.90;;;;;;12497859;28;20045;-38
2021/09/10 22:47:24;;;;;;;23.70;17.95;;;18.20;99.90;;;;;;12502965;28;20072;-38
2021/09/10 22:53:26;;;;;;;17.75;14.50;;;18.20;99.90;;;;;;12506254;28;20065;-39
2021/09/10 22:59:28;;;;;;;18.83;14.50;;;18.10;99.90;;;;;;12516486;28;20049;-40
2021/09/10 23:05:30;;;;;;;21.63;17.13;;;18.20;99.90;;;;;;12513563;28;20609;-38
2021/09/10 23:11:32;;;;;;;25.13;17.90;;;18.20;99.90;;;;;;12510388;28;20077;-37
2021/09/10 23:17:34;;;;;;;22.75;17.83;;;18.10;99.90;;;;;;12502522;28;20055;-38
2021/09/10 23:23:37;;;;;;;26.05;17.90;;;18.10;99.90;;;;;;12514009;28;20142;-37
2021/09/10 23:29:39;;;;;;;25.48;19.13;;;18.00;99.90;;;;;;12509047;28;20145;-38
2021/09/10 23:35:41;;;;;;;27.40;19.73;;;18.00;99.90;;;;;;12508948;28;20053;-39
2021/09/10 23:41:43;;;;;;;26.13;19.17;;;18.00;99.90;;;;;;12511162;28;20147;-37
2021/09/10 23:47:45;;;;;;;25.45;18.90;;;18.00;99.90;;;;;;12516284;28;20136;-37
2021/09/10 23:53:47;;;;;;;26.15;19.85;;;18.00;99.90;;;;;;12509502;28;20479;-37
2021/09/10 23:59:48;;;;;;;27.27;19.60;;;17.90;99.90;;;;;;12514198;28;20140;-37
